Tuesday, July 25, 2017, 2:30 AM EDT

KGED, Georgetown Sussex Co Airport

Location: Georgetown, DE, United States Lat: 38.683
Local Time: 2:30 AM EDT ( 6:30 GMT) Lon: -75.367
Time Zone: US/Eastern Elev: 52 ft

Show me the last for .
Show Decoded

2017-07-25 02:12 METAR KGED 250612Z AUTO 13003KT 10SM BKN004 22/21 A2993 RMK AO2 LTG DSNT E-S
                 T02170206 =
2017-07-25 01:57 METAR KGED 250557Z AUTO 03003KT 10SM BKN005 BKN100 22/21 A2992 RMK AO2 LTG DSNT
                 E-SW T02220206 =
2017-07-25 01:54 METAR KGED 250554Z AUTO 04004KT 10SM VCTS SCT005 BKN075 BKN100 22/21 A2992 RMK
                 AO2 LTG DSNT E-SW RAE35 TSE48 SLP130 P0047 60047 T02170206 10272 20217 53015 =
2017-07-25 01:40 METAR KGED 250540Z AUTO 03006KT 10SM TS SCT005 BKN075 OVC100 22/21 A2992 RMK AO2
                 LTG DSNT E-SW RAE35 P0046 T02220206 =
2017-07-25 01:24 METAR KGED 250524Z AUTO 05006KT 4SM -TSRA BR SCT016 BKN032 OVC100 22/21 A2994
                 RMK AO2 LTG DSNT ALQDS P0046 T02170206 =
2017-07-25 01:21 METAR KGED 250521Z AUTO 04010KT 1 1/2SM -TSRA BR SCT016 BKN030 OVC100 22/21
                 A2993 RMK AO2 LTG DSNT ALQDS P0046 T02170206 =
2017-07-25 01:12 METAR KGED 250512Z AUTO 04007KT 3/4SM +TSRA BR SCT010 OVC029 22/21 A2994 RMK AO2
                 LTG DSNT ALQDS P0039 T02220206 =
2017-07-25 01:09 METAR KGED 250509Z AUTO 35006KT 1 3/4SM TSRA BR FEW010 SCT015 OVC029 23/21 A2996
                 RMK AO2 LTG DSNT ALQDS PRESRR P0019 T02280206 =
2017-07-25 00:54 METAR KGED 250454Z AUTO 05013G18KT 10SM -TSRA FEW012 SCT022 OVC030 23/20 A2990
                 RMK AO2 LTG DSNT ALQDS RAB53 TSB47 SLP124 P0000 T02330200 403060233 =
2017-07-25 00:51 METAR KGED 250451Z AUTO 04010KT 10SM TS FEW012 SCT022 OVC030 23/20 A2991 RMK AO2
                 LTG DSNT ALQDS TSB47 =
2017-07-25 00:25 METAR KGED 250425Z AUTO 02010G17KT 10SM VCTS FEW013 SCT020 BKN029 26/22 A2989
                 RMK AO2 LTG DSNT W-NE T02560217 =
2017-07-24 23:54 METAR KGED 250354Z AUTO 19007KT 10SM SCT085 SCT120 25/22 A2986 RMK AO2 LTG DSNT
                 W-NE SLP112 T02500222 =
2017-07-24 22:54 METAR KGED 250254Z AUTO 14003KT 10SM CLR 25/22 A2987 RMK AO2 SLP115 T02500217
                 53012 =
2017-07-24 21:54 METAR KGED 250154Z AUTO 00000KT 10SM CLR 26/22 A2987 RMK AO2 SLP113 T02560217 =
2017-07-24 20:54 METAR KGED 250054Z AUTO 18003KT 10SM CLR 26/22 A2983 RMK AO2 SLP102 T02610222 =
2017-07-24 19:54 METAR KGED 242354Z AUTO 19003KT 10SM CLR 27/22 A2984 RMK AO2 SLP103 T02720217
                 10306 20272 50002 =
2017-07-24 18:54 METAR KGED 242254Z AUTO 24005KT 10SM CLR 29/21 A2984 RMK AO2 SLP103 T02940206 =
2017-07-24 17:54 METAR KGED 242154Z AUTO VRB04KT 10SM CLR 30/21 A2983 RMK AO2 SLP100 T03000206 =
2017-07-24 16:54 METAR KGED 242054Z AUTO 24007KT 10SM FEW035 31/22 A2983 RMK AO2 SLP101 T03060217
                 53002 =
2017-07-24 15:54 METAR KGED 241954Z AUTO 27005KT 10SM FEW034 31/22 A2983 RMK AO2 SLP100 T03060217
                 =
2017-07-24 14:54 METAR KGED 241854Z AUTO 27008KT 250V310 10SM SCT034 30/22 A2982 RMK AO2 SLP098
                 T03000217 =
2017-07-24 13:54 METAR KGED 241754Z AUTO VRB06KT 10SM SCT029 29/22 A2982 RMK AO2 SLP098 60000
                 T02940217 10294 20256 53003 =
2017-07-24 12:54 METAR KGED 241654Z AUTO 25005KT 10SM FEW026 29/22 A2982 RMK AO2 SLP096 T02890217
                 =
2017-07-24 11:54 METAR KGED 241554Z AUTO 25007KT 230V300 10SM CLR 29/22 A2981 RMK AO2 SLP093
                 T02890217 =
2017-07-24 10:54 METAR KGED 241454Z AUTO 27009KT 250V310 10SM FEW020 28/22 A2981 RMK AO2 SLP095
                 60000 T02780217 53012 =
2017-07-24 09:54 METAR KGED 241354Z AUTO 26006KT 10SM CLR 27/23 A2980 RMK AO2 RAB20E30 SLP089
                 P0000 T02670228 =
2017-07-24 08:54 METAR KGED 241254Z AUTO 24009KT 10SM CLR 26/22 A2979 RMK AO2 RAB11E21 SLP087
                 P0000 T02560222 =
2017-07-24 07:54 METAR KGED 241154Z AUTO 23005KT 10SM SCT090 BKN120 26/23 A2978 RMK AO2 SLP083
                 60000 70003 T02560228 10256 20244 53008 =
2017-07-24 06:54 METAR KGED 241054Z AUTO 22007KT 10SM CLR 26/22 A2976 RMK AO2 SLP078 T02560222 =
2017-07-24 05:54 METAR KGED 240954Z AUTO 00000KT 10SM CLR 25/23 A2976 RMK AO2 RAB03E12 SLP077
                 P0000 T02500228 =
2017-07-24 04:54 METAR KGED 240854Z AUTO 16006KT 8SM FEW055 FEW090 BKN110 25/23 A2976 RMK AO2
                 RAB31E52 SLP075 P0000 60000 T02500233 53002 =
2017-07-24 03:54 METAR KGED 240754Z AUTO 33005KT 10SM FEW090 26/23 A2972 RMK AO2 RAB10E20 SLP065
                 P0000 T02560228 =
2017-07-24 02:54 METAR KGED 240654Z AUTO 29004KT 10SM CLR 26/23 A2973 RMK AO2 LTG DSNT N SLP066
                 T02560233 =

Support USWX by starting your Amazon purchase here.